• Join FlightAware (Why Join?)
  • Login
  • US Flag 
09:35AM EDT


 

Airport Tracker/Info


-or-


 

Live Flight TrackerFlight Track Log ✈ SWA4281 ✈ 23-Aug-2014 ✈ KJAX - KBNA

Flight Track Log - Related Links

Times and Time Zones

All times are in EDT time to prevent confusion due to time zone crossing. See the SWA4281 flight status page for this flight to view local times or setup timezone preferences in your user account.

Time Position Orientation Groundspeed Altitude Reporting Facility
EDT Latitude Longitude Course Direction KTS MPH feet Rate Location/Type
05:57PM 30.5397 -81.5975 322° Northwest 224 258 3,900  Level Jacksonville Center
05:58PM 30.5922 -81.6306 332° Northwest 270 311 5,800 2,880 Climbing Jacksonville Center
05:59PM 30.6597 -81.6900 323° Northwest 277 319 10,300 3,420 Climbing Jacksonville Center
06:00PM 30.7397 -81.7614 323° Northwest 310 357 13,600 3,300 Climbing Jacksonville Center
06:01PM 30.8175 -81.8283 324° Northwest 325 374 17,000 3,060 Climbing Jacksonville Center
06:02PM 31.0920 -82.1808 322° Northwest  Level Estimated
06:02PM 30.8953 -81.9047 320° Northwest 353 406 19,800  Level Jacksonville Center
06:03PM 30.9794 -81.9839 321° Northwest 368 423 22,300 2,460 Climbing Jacksonville Center
06:04PM 31.0697 -82.0703 321° Northwest 392 451 24,800 2,340 Climbing Jacksonville Center
06:05PM 31.1581 -82.1544 321° Northwest 404 465 27,000 1,980 Climbing Jacksonville Center
06:06PM 31.2503 -82.2436 320° Northwest 419 482 28,800 1,680 Climbing Jacksonville Center
06:07PM 31.3489 -82.3381 321° Northwest 431 496 30,400 1,680 Climbing Jacksonville Center
06:08PM 31.4475 -82.4250 323° Northwest 442 509 32,200 1,980 Climbing Jacksonville Center
06:09PM 31.5458 -82.5219 320° Northwest 455 524 34,400 1,920 Climbing Jacksonville Center
06:10PM 31.6422 -82.6169 320° Northwest 455 524 36,100 1,440 Climbing Jacksonville Center
06:12PM 31.8361 -82.8033 321° Northwest 448 516 39,000 660 Climbing Atlanta Center
06:14PM 32.0625 -82.9783 327° Northwest 447 514 39,100 300 Climbing Atlanta Center
06:15PM 32.1678 -83.0592 327° Northwest 448 516 40,000 420 Climbing Atlanta Center
06:16PM 32.2714 -83.1406 326° Northwest 449 517 40,000  Level Atlanta Center
06:17PM 32.3758 -83.2203 327° Northwest 449 517 40,000  Level Atlanta Center
06:18PM 32.5003 -83.3167 327° Northwest 449 517 40,000  Level Atlanta Center
06:19PM 32.6033 -83.3944 328° Northwest 444 511 40,000  Level Atlanta Center
06:20PM 32.7067 -83.4742 327° Northwest 444 511 40,000  Level Atlanta Center
06:21PM 32.8097 -83.5542 327° Northwest 444 511 40,000  Level Atlanta Center
06:22PM 32.9131 -83.6328 327° Northwest 443 510 40,000  Level Atlanta Center
06:23PM 33.0361 -83.7294 327° Northwest 442 509 40,000  Level Atlanta Center
06:24PM 33.1300 -83.8022 327° Northwest 442 509 40,000  Level Atlanta Center
06:25PM 33.2331 -83.8822 327° Northwest 443 510 40,000  Level Atlanta Center
06:26PM 33.3578 -83.9797 327° Northwest 444 511 40,000  Level Atlanta Center
06:28PM 33.4608 -84.0611 327° Northwest 445 512 40,000  Level Atlanta Center
06:29PM 33.5650 -84.1431 327° Northwest 447 514 40,000  Level Atlanta Center
06:30PM 33.6658 -84.2219 327° Northwest 448 516 40,000  Level Atlanta Center
06:31PM 33.7892 -84.3194 327° Northwest 447 514 40,000  Level Atlanta Center
06:32PM 33.8925 -84.4031 326° Northwest 449 517 40,000  Level Atlanta Center
06:33PM 33.9928 -84.4833 326° Northwest 441 507 40,000  Level Atlanta Center
06:34PM 34.1014 -84.5706 326° Northwest 441 507 40,000 -420 Level Atlanta Center
06:35PM 34.2003 -84.6450 328° Northwest 463 533 39,200 -960 Descending Atlanta Center
06:36PM 34.3217 -84.7444 326° Northwest 448 516 38,100 -960 Descending Atlanta Center
06:37PM 34.4153 -84.8200 326° Northwest 448 516 37,200 -960 Descending Atlanta Center
06:38PM 34.5417 -84.9228 326° Northwest 457 526 36,100 -1,020 Descending Atlanta Center
06:39PM 34.6481 -85.0097 326° Northwest 459 528 35,200 -960 Descending Atlanta Center
06:40PM 34.7561 -85.0950 327° Northwest 463 533 34,200 -1,020 Descending Atlanta Center
06:41PM 34.8650 -85.1778 328° Northwest 461 531 33,200 -1,080 Descending Atlanta Center
06:42PM 34.9728 -85.2622 327° Northwest 460 529 32,000 -1,980 Descending Atlanta Center
06:43PM 35.0811 -85.3464 328° Northwest 460 529 29,200 -2,400 Descending Atlanta Center
06:44PM 35.1814 -85.4336 325° Northwest 445 512 27,100 -2,580 Descending Atlanta Center
06:45PM 35.2800 -85.5608 314° West 427 491 23,900 -2,040 Descending Atlanta Center
06:46PM 35.3558 -85.6606 313° West 404 465 23,000 -480 Descending Atlanta Center
06:47PM 35.3550 -85.7928 270° West 393 452 23,000  Level Atlanta Center
06:48PM 35.3625 -85.9258 274° West 394 453 23,000  Level Memphis Center
06:49PM 35.3761 -86.0581 277° West 394 453 23,000  Level Memphis Center
06:50PM 35.3944 -86.1989 279° West 392 451 23,000 -600 Level Memphis Center
06:51PM 35.4375 -86.3244 293° West 396 456 21,800 -2,580 Descending Memphis Center
06:52PM 35.5144 -86.4183 315° West 402 463 17,800 -3,960 Descending Memphis Center
06:53PM 35.6211 -86.4700 339° North 407 468 13,800 -2,460 Descending Memphis Center
06:54PM 35.7081 -86.5269 332° Northwest 359 413 12,800 -1,800 Descending Memphis Center
06:55PM 35.8006 -86.5678 340° North 308 354 10,200 -2,160 Descending Memphis Center
06:56PM 35.8403 -86.6500 301° West 298 343 8,400 -1,380 Descending Memphis Center
06:57PM 35.8689 -86.7414 291° West 287 330 7,400 -960 Descending Memphis Center
06:59PM 35.9178 -86.7564 346° North 236 272 6,500 -1,440 Descending Memphis Center
07:00PM 35.9625 -86.7264 28° Northeast 193 222 4,500 -1,860 Descending Memphis Center
07:01PM 36.0089 -86.7092 17° North 177 204 2,800 -1,320 Descending Memphis Center
07:02PM 36.0489 -86.6933 18° North 159 183 1,800 -780 Descending Memphis Center
07:03PM 36.0833 -86.6789 19° North 141 162 1,300 -600 Descending Memphis Center
07:04PM 36.1267 -86.6622 17° North 141 162 600 -720 Descending Memphis Center
07:06PM 36.1245 -86.6782 260° West  Level Estimated